Excalibur — ONCE — position and weather

sailwx.info

Track history (hours):
 
Tides and Currents Weather Stations Pressure Air Temp Water Temp Dewpoint Dewpoint Depression Visibility Wind Speed Wind Dir Waves Ship Positions

Excalibur

Last reported at 2018-Feb-22 06:00 UTC. Time now 2018-Feb-23 08:50 UTC.
Position N 34°42' E 021°36'.

Length 277 m; draft 11.2 m.

Type: Ship. MMSI: 205421000.

Wind from 250 at 12 knots

Barometer 1006.0 mb
Air temperature 15.0 ° C
Dewpoint 11.3 ° C
Water temperature 17.0 ° C

Date/timePositionNaut miles runAvg speedWind from/ knotsBaromVisibWave heightAir tempDewpointWater temp
2018-Feb-22 06:00N 34°42' E 021°36'34217.8 250 / 121006.0 15.011.317.0
2018-Feb-21 10:49N 36°19' E 014°53'618.5
2018-Feb-21 10:30N 36°20' E 014°46'918.1
2018-Feb-21 10:00N 36°22' E 014°35'918.2
2018-Feb-21 09:29N 36°26' E 014°25'918.3
2018-Feb-21 09:00N 36°29' E 014°14'918.2
2018-Feb-21 08:30N 36°32' E 014°03'5220.6
2018-Feb-21 06:00N 36°42' E 013°00'22318.6 300 / 181000.0 12.0 5.616.0
2018-Feb-20 18:00N 37°42' E 008°30'63717.7 310 / 201015.0 12.010.116.0
2018-Feb-19 06:00N 36°00' W 004°36'21017.5 130 / 51016.010.8 14.010.216.0
2018-Feb-18 18:00N 36°24' W 008°54'813.4 040 / 81019.010.8 15.0 9.217.0
2018-Feb-18 17:23N 36°26' W 009°04'2916.8
2018-Feb-18 15:38N 36°42' W 009°34'3417.4
2018-Feb-18 13:40N 37°15' W 009°46'1018.3
2018-Feb-18 13:06N 37°25' W 009°49'318.3
2018-Feb-18 12:56N 37°28' W 009°50'817.7
2018-Feb-18 12:28N 37°36' W 009°52'4017.8
2018-Feb-18 10:11N 38°16' W 010°04'418.0
2018-Feb-18 09:59N 38°19' W 010°05'918.0
2018-Feb-18 09:30N 38°28' W 010°08'918.0
2018-Feb-18 09:00N 38°36' W 010°10'917.7
2018-Feb-18 08:30N 38°45' W 010°12'917.8
2018-Feb-18 08:00N 38°54' W 010°11'918.4
2018-Feb-18 07:30N 39°03' W 010°11'918.8
2018-Feb-18 07:00N 39°13' W 010°10'1018.5
2018-Feb-18 06:28N 39°23' W 010°11'818.3
2018-Feb-18 06:00N 39°31' W 010°11'2118.4
2018-Feb-18 04:50N 39°52' W 010°10'51715.7
2018-Feb-16 19:51N 46°48' W 003°08'817.3
2018-Feb-16 19:25N 46°52' W 002°59'817.3
2018-Feb-16 18:59N 46°56' W 002°50'817.0
2018-Feb-16 18:30N 47°01' W 002°40'816.7
2018-Feb-16 18:00N 47°04' W 002°28'612.6
2018-Feb-16 17:30N 47°08' W 002°21'511.0
2018-Feb-16 17:00N 47°12' W 002°17'611.1
2018-Feb-16 16:30N 47°16' W 002°11'3 5.5
2018-Feb-16 16:00N 47°18' W 002°08'0 0.4
2018-Feb-16 15:28N 47°18' W 002°08'0 0.0
2018-Feb-14 15:07N 47°18' W 002°08'0 0.0
2018-Feb-14 15:00N 47°18' W 002°08'0 0.3
2018-Feb-14 14:30N 47°18' W 002°08'2 4.8
2018-Feb-14 14:00N 47°16' W 002°11'510.5
2018-Feb-14 13:31N 47°13' W 002°17'611.1
2018-Feb-14 13:00N 47°08' W 002°21'3 6.5
2018-Feb-14 12:30N 47°06' W 002°24'4 6.9
2018-Feb-14 12:00N 47°04' W 002°28'3 6.9
2018-Feb-14 11:30N 47°02' W 002°33'4 8.7
2018-Feb-14 11:00N 47°01' W 002°39'9 8.9
2018-Feb-14 09:57N 46°60' W 002°52'4 8.7
2018-Feb-14 09:30N 46°59' W 002°58'4 8.4
2018-Feb-14 09:00N 46°59' W 003°04'4 7.9
2018-Feb-14 08:30N 46°59' W 003°10'5 7.8
2018-Feb-14 07:54N 46°60' W 003°17'4 8.0
2018-Feb-14 07:25N 47°00' W 003°23'28 1.6
2018-Feb-13 13:15N 47°07' W 004°03'2 7.3
2018-Feb-13 12:58N 47°06' W 004°00'3 7.5
2018-Feb-13 12:30N 47°06' W 003°55'5 7.4
2018-Feb-13 11:49N 47°04' W 003°48'3 7.5
2018-Feb-13 11:29N 47°04' W 003°44'4 7.5
2018-Feb-13 11:01N 47°03' W 003°39'4 7.7
2018-Feb-13 10:30N 47°02' W 003°34'4 7.1
2018-Feb-13 10:00N 47°01' W 003°29'4 7.1
2018-Feb-13 09:30N 47°00' W 003°23'4 7.6
2018-Feb-13 09:00N 47°01' W 003°18'4 7.7
2018-Feb-13 08:30N 47°00' W 003°12'4 7.7
2018-Feb-13 08:00N 47°01' W 003°07'4 7.6
2018-Feb-13 07:30N 47°01' W 003°01'9 8.2
2018-Feb-13 06:24N 46°60' W 002°48'4 9.1
2018-Feb-13 05:58N 47°00' W 002°42'4 9.2
2018-Feb-13 05:30N 47°02' W 002°36'510.0
2018-Feb-13 05:00N 47°04' W 002°30'3 6.5
2018-Feb-13 04:30N 47°07' W 002°28'0 0.2
2018-Feb-13 03:59N 47°07' W 002°28'0 0.2
2018-Feb-13 03:29N 47°07' W 002°28'0 0.4
2018-Feb-13 02:59N 47°07' W 002°28'0 0.1
2018-Feb-13 02:29N 47°07' W 002°28'0 0.1
2018-Feb-13 01:59N 47°07' W 002°28'0 0.0
2018-Feb-13 01:29N 47°07' W 002°28'0 0.0
2018-Feb-13 00:59N 47°07' W 002°28'0 0.0
2018-Feb-13 00:29N 47°07' W 002°28'0 0.0
2018-Feb-12 23:59N 47°07' W 002°28'0 0.0
2018-Feb-12 23:29N 47°07' W 002°28'0 0.0
2018-Feb-12 22:59N 47°07' W 002°28'0 0.0
2018-Feb-12 22:26N 47°07' W 002°28'0 0.1
2018-Feb-12 21:59N 47°07' W 002°28'0 0.0
2018-Feb-12 21:29N 47°07' W 002°28'0 0.0
2018-Feb-12 20:59N 47°07' W 002°28'0 0.0
2018-Feb-12 20:29N 47°07' W 002°28'0 0.0
2018-Feb-12 19:53N 47°07' W 002°28'0 0.0
2018-Feb-12 19:29N 47°07' W 002°28'0 0.0
2018-Feb-12 18:59N 47°07' W 002°28'0 0.0
2018-Feb-12 18:29N 47°07' W 002°28'0 0.3
2018-Feb-12 17:59N 47°07' W 002°28'0 0.0
2018-Feb-12 17:29N 47°07' W 002°28'0 0.0
2018-Feb-12 16:59N 47°07' W 002°28'0 0.1
2018-Feb-12 16:29N 47°07' W 002°28'0 0.0
2018-Feb-12 15:59N 47°07' W 002°28'0 0.0
2018-Feb-12 15:17N 47°07' W 002°28'0 0.0
2018-Feb-12 14:59N 47°07' W 002°28'0 0.1
2018-Feb-12 14:29N 47°07' W 002°28'0 0.2
2018-Feb-12 13:59N 47°07' W 002°28'0 0.0
2018-Feb-12 13:29N 47°07' W 002°28'0 0.1
2018-Feb-12 12:56N 47°07' W 002°28'0 0.0
2018-Feb-12 12:20N 47°07' W 002°28'0 0.0
2018-Feb-12 11:59N 47°07' W 002°28'0 0.1
2018-Feb-12 11:29N 47°07' W 002°28'0 0.0
2018-Feb-12 10:59N 47°07' W 002°28'0 0.0
2018-Feb-12 10:29N 47°07' W 002°28'0 0.0
2018-Feb-12 09:59N 47°07' W 002°28'0 0.0
2018-Feb-12 09:29N 47°07' W 002°28'0 0.2
2018-Feb-12 08:56N 47°07' W 002°28'0 0.3
2018-Feb-12 08:29N 47°07' W 002°28'0 0.2
2018-Feb-12 07:59N 47°07' W 002°28'0 0.1
2018-Feb-12 07:29N 47°07' W 002°28'0 0.1
2018-Feb-12 06:59N 47°07' W 002°28'0 0.0
2018-Feb-12 06:29N 47°07' W 002°28'  
Track history (hours):
 
Tides and Currents Weather Stations Pressure Air Temp Water Temp Dewpoint Dewpoint Depression Visibility Wind Speed Wind Dir Waves Ship Positions

Excalibur

Last reported at 2018-Feb-22 06:00 UTC. Time now 2018-Feb-23 08:50 UTC.
Position N 34°42' E 021°36'.

Length 277 m; draft 11.2 m.

Type: Ship. MMSI: 205421000.

Wind from 250 at 12 knots

Barometer 1006.0 mb
Air temperature 15.0 ° C
Dewpoint 11.3 ° C
Water temperature 17.0 ° C

Date/timePositionNaut miles runAvg speedWind from/ knotsBaromVisibWave heightAir tempDewpointWater temp
2018-Feb-22 06:00N 34°42' E 021°36'34217.8 250 / 121006.0 15.011.317.0
2018-Feb-21 10:49N 36°19' E 014°53'618.5
2018-Feb-21 10:30N 36°20' E 014°46'918.1
2018-Feb-21 10:00N 36°22' E 014°35'918.2
2018-Feb-21 09:29N 36°26' E 014°25'918.3
2018-Feb-21 09:00N 36°29' E 014°14'918.2
2018-Feb-21 08:30N 36°32' E 014°03'5220.6
2018-Feb-21 06:00N 36°42' E 013°00'22318.6 300 / 181000.0 12.0 5.616.0
2018-Feb-20 18:00N 37°42' E 008°30'63717.7 310 / 201015.0 12.010.116.0
2018-Feb-19 06:00N 36°00' W 004°36'21017.5 130 / 51016.010.8 14.010.216.0
2018-Feb-18 18:00N 36°24' W 008°54'813.4 040 / 81019.010.8 15.0 9.217.0
2018-Feb-18 17:23N 36°26' W 009°04'2916.8
2018-Feb-18 15:38N 36°42' W 009°34'3417.4
2018-Feb-18 13:40N 37°15' W 009°46'1018.3
2018-Feb-18 13:06N 37°25' W 009°49'318.3
2018-Feb-18 12:56N 37°28' W 009°50'817.7
2018-Feb-18 12:28N 37°36' W 009°52'4017.8
2018-Feb-18 10:11N 38°16' W 010°04'418.0
2018-Feb-18 09:59N 38°19' W 010°05'918.0
2018-Feb-18 09:30N 38°28' W 010°08'918.0
2018-Feb-18 09:00N 38°36' W 010°10'917.7
2018-Feb-18 08:30N 38°45' W 010°12'917.8
2018-Feb-18 08:00N 38°54' W 010°11'918.4
2018-Feb-18 07:30N 39°03' W 010°11'918.8
2018-Feb-18 07:00N 39°13' W 010°10'1018.5
2018-Feb-18 06:28N 39°23' W 010°11'818.3
2018-Feb-18 06:00N 39°31' W 010°11'2118.4
2018-Feb-18 04:50N 39°52' W 010°10'51715.7
2018-Feb-16 19:51N 46°48' W 003°08'817.3
2018-Feb-16 19:25N 46°52' W 002°59'817.3
2018-Feb-16 18:59N 46°56' W 002°50'817.0
2018-Feb-16 18:30N 47°01' W 002°40'816.7
2018-Feb-16 18:00N 47°04' W 002°28'612.6
2018-Feb-16 17:30N 47°08' W 002°21'511.0
2018-Feb-16 17:00N 47°12' W 002°17'611.1
2018-Feb-16 16:30N 47°16' W 002°11'3 5.5
2018-Feb-16 16:00N 47°18' W 002°08'0 0.4
2018-Feb-16 15:28N 47°18' W 002°08'0 0.0
2018-Feb-14 15:07N 47°18' W 002°08'0 0.0
2018-Feb-14 15:00N 47°18' W 002°08'0 0.3
2018-Feb-14 14:30N 47°18' W 002°08'2 4.8
2018-Feb-14 14:00N 47°16' W 002°11'510.5
2018-Feb-14 13:31N 47°13' W 002°17'611.1
2018-Feb-14 13:00N 47°08' W 002°21'3 6.5
2018-Feb-14 12:30N 47°06' W 002°24'4 6.9
2018-Feb-14 12:00N 47°04' W 002°28'3 6.9
2018-Feb-14 11:30N 47°02' W 002°33'4 8.7
2018-Feb-14 11:00N 47°01' W 002°39'9 8.9
2018-Feb-14 09:57N 46°60' W 002°52'4 8.7
2018-Feb-14 09:30N 46°59' W 002°58'4 8.4
2018-Feb-14 09:00N 46°59' W 003°04'4 7.9
2018-Feb-14 08:30N 46°59' W 003°10'5 7.8
2018-Feb-14 07:54N 46°60' W 003°17'4 8.0
2018-Feb-14 07:25N 47°00' W 003°23'28 1.6
2018-Feb-13 13:15N 47°07' W 004°03'2 7.3
2018-Feb-13 12:58N 47°06' W 004°00'3 7.5
2018-Feb-13 12:30N 47°06' W 003°55'5 7.4
2018-Feb-13 11:49N 47°04' W 003°48'3 7.5
2018-Feb-13 11:29N 47°04' W 003°44'4 7.5
2018-Feb-13 11:01N 47°03' W 003°39'4 7.7
2018-Feb-13 10:30N 47°02' W 003°34'4 7.1
2018-Feb-13 10:00N 47°01' W 003°29'4 7.1
2018-Feb-13 09:30N 47°00' W 003°23'4 7.6
2018-Feb-13 09:00N 47°01' W 003°18'4 7.7
2018-Feb-13 08:30N 47°00' W 003°12'4 7.7
2018-Feb-13 08:00N 47°01' W 003°07'4 7.6
2018-Feb-13 07:30N 47°01' W 003°01'9 8.2
2018-Feb-13 06:24N 46°60' W 002°48'4 9.1
2018-Feb-13 05:58N 47°00' W 002°42'4 9.2
2018-Feb-13 05:30N 47°02' W 002°36'510.0
2018-Feb-13 05:00N 47°04' W 002°30'3 6.5
2018-Feb-13 04:30N 47°07' W 002°28'0 0.2
2018-Feb-13 03:59N 47°07' W 002°28'0 0.2
2018-Feb-13 03:29N 47°07' W 002°28'0 0.4
2018-Feb-13 02:59N 47°07' W 002°28'0 0.1
2018-Feb-13 02:29N 47°07' W 002°28'0 0.1
2018-Feb-13 01:59N 47°07' W 002°28'0 0.0
2018-Feb-13 01:29N 47°07' W 002°28'0 0.0
2018-Feb-13 00:59N 47°07' W 002°28'0 0.0
2018-Feb-13 00:29N 47°07' W 002°28'0 0.0
2018-Feb-12 23:59N 47°07' W 002°28'0 0.0
2018-Feb-12 23:29N 47°07' W 002°28'0 0.0
2018-Feb-12 22:59N 47°07' W 002°28'0 0.0
2018-Feb-12 22:26N 47°07' W 002°28'0 0.1
2018-Feb-12 21:59N 47°07' W 002°28'0 0.0
2018-Feb-12 21:29N 47°07' W 002°28'0 0.0
2018-Feb-12 20:59N 47°07' W 002°28'0 0.0
2018-Feb-12 20:29N 47°07' W 002°28'0 0.0
2018-Feb-12 19:53N 47°07' W 002°28'0 0.0
2018-Feb-12 19:29N 47°07' W 002°28'0 0.0
2018-Feb-12 18:59N 47°07' W 002°28'0 0.0
2018-Feb-12 18:29N 47°07' W 002°28'0 0.3
2018-Feb-12 17:59N 47°07' W 002°28'0 0.0
2018-Feb-12 17:29N 47°07' W 002°28'0 0.0
2018-Feb-12 16:59N 47°07' W 002°28'0 0.1
2018-Feb-12 16:29N 47°07' W 002°28'0 0.0
2018-Feb-12 15:59N 47°07' W 002°28'0 0.0
2018-Feb-12 15:17N 47°07' W 002°28'0 0.0
2018-Feb-12 14:59N 47°07' W 002°28'0 0.1
2018-Feb-12 14:29N 47°07' W 002°28'0 0.2
2018-Feb-12 13:59N 47°07' W 002°28'0 0.0
2018-Feb-12 13:29N 47°07' W 002°28'0 0.1
2018-Feb-12 12:56N 47°07' W 002°28'0 0.0
2018-Feb-12 12:20N 47°07' W 002°28'0 0.0
2018-Feb-12 11:59N 47°07' W 002°28'0 0.1
2018-Feb-12 11:29N 47°07' W 002°28'0 0.0
2018-Feb-12 10:59N 47°07' W 002°28'0 0.0
2018-Feb-12 10:29N 47°07' W 002°28'0 0.0
2018-Feb-12 09:59N 47°07' W 002°28'0 0.0
2018-Feb-12 09:29N 47°07' W 002°28'0 0.2
2018-Feb-12 08:56N 47°07' W 002°28'0 0.3
2018-Feb-12 08:29N 47°07' W 002°28'0 0.2
2018-Feb-12 07:59N 47°07' W 002°28'0 0.1
2018-Feb-12 07:29N 47°07' W 002°28'0 0.1
2018-Feb-12 06:59N 47°07' W 002°28'0 0.0
2018-Feb-12 06:29N 47°07' W 002°28'  

Dump ship's entire track history